This is the latest recevied weather packets stored in our database for station/object KD8DNO-13. If no packets are shown the sender has not sent any weather packets the latest 10 day(s).
| Time | Temp. | Humidity | Pressure | Rain* | Wind** | Luminosity | Snow |
|---|---|---|---|---|---|---|---|
| 1788476283 | 32.78° C | 57% | 1016.5 hPa | 0 mm | - | - | - |
| 1788475983 | 32.22° C | 60% | 1016.5 hPa | 0 mm | - | - | - |
| 1788475685 | 32.22° C | 60% | 1016.5 hPa | 0 mm | - | - | - |
| 1788475384 | 32.78° C | 59% | 1016.5 hPa | 0 mm | - | - | - |
| 1788475083 | 32.78° C | 59% | 1016.5 hPa | 0 mm | - | - | - |
| 1788474783 | 31.67° C | 60% | 1016.5 hPa | 0 mm | - | - | - |
| 1788474483 | 31.67° C | 61% | 1016.5 hPa | 0 mm | - | - | - |
| 1788474183 | 32.22° C | 59% | 1016.9 hPa | 0 mm | - | - | - |
| 1788473883 | 32.78° C | 57% | 1016.9 hPa | 0 mm | - | - | - |
| 1788473583 | 32.78° C | 56% | 1016.5 hPa | 0 mm | - | - | - |
| 1788473283 | 33.89° C | 55% | 1016.5 hPa | 0 mm | - | - | - |
| 1788472983 | 33.33° C | 56% | 1016.5 hPa | 0 mm | - | - | - |
| 1788472683 | 32.22° C | 59% | 1016.5 hPa | 0 mm | - | - | - |
| 1788472383 | 31.67° C | 59% | 1016.5 hPa | 0 mm | - | - | - |
| 1788472083 | 31.67° C | 61% | 1016.5 hPa | 0 mm | - | - | - |
| 1788471812 | 32.22° C | 60% | 1016.5 hPa | 0 mm | - | - | - |
| 1788471483 | 31.67° C | 60% | 1015.9 hPa | 0 mm | - | - | - |
| 1788471183 | 32.78° C | 56% | 1015.9 hPa | 0 mm | - | - | - |
| 1788470883 | 32.78° C | 57% | 1015.9 hPa | 0 mm | - | - | - |
| 1788470583 | 33.89° C | 54% | 1015.9 hPa | 0 mm | - | - | - |
| 1788470283 | 33.89° C | 53% | 1015.9 hPa | 0 mm | - | - | - |
| 1788469983 | 33.89° C | 54% | 1015.5 hPa | 0 mm | - | - | - |
| 1788469683 | 33.89° C | 54% | 1015.5 hPa | 0 mm | - | - | - |
| 1788469384 | 33.89° C | 53% | 1015.5 hPa | 0 mm | - | - | - |
| 1788469083 | 34.44° C | 53% | 1015.5 hPa | 0 mm | - | - | - |
* Rain latest hour (hover to see other rain measurements)
** Current wind speed in m/s (hover to see current wind gust speed)